sensor_id;sensor_type;location;lat;lon;timestamp;temperature;humidity
20246;DHT22;10281;54.406;18.556;2024-03-02T00:00:49;9.10;99.90
20246;DHT22;10281;54.406;18.556;2024-03-02T00:03:18;9.10;99.90
20246;DHT22;10281;54.406;18.556;2024-03-02T00:05:48;9.10;99.90
20246;DHT22;10281;54.406;18.556;2024-03-02T00:08:21;9.10;99.90
20246;DHT22;10281;54.406;18.556;2024-03-02T00:10:48;9.10;99.90
20246;DHT22;10281;54.406;18.556;2024-03-02T00:13:15;9.10;99.90
20246;DHT22;10281;54.406;18.556;2024-03-02T00:15:46;9.10;99.90
20246;DHT22;10281;54.406;18.556;2024-03-02T00:18:20;9.10;99.90
20246;DHT22;10281;54.406;18.556;2024-03-02T00:20:48;9.10;99.90
20246;DHT22;10281;54.406;18.556;2024-03-02T00:23:15;9.10;99.90
20246;DHT22;10281;54.406;18.556;2024-03-02T00:25:44;9.20;99.90
20246;DHT22;10281;54.406;18.556;2024-03-02T00:28:21;9.10;99.90
20246;DHT22;10281;54.406;18.556;2024-03-02T00:31:09;9.20;99.90
20246;DHT22;10281;54.406;18.556;2024-03-02T00:33:43;9.20;99.90
20246;DHT22;10281;54.406;18.556;2024-03-02T00:36:12;9.20;99.90
20246;DHT22;10281;54.406;18.556;2024-03-02T00:38:46;9.20;99.90
20246;DHT22;10281;54.406;18.556;2024-03-02T00:41:23;9.20;99.90
20246;DHT22;10281;54.406;18.556;2024-03-02T00:43:57;9.20;99.90
20246;DHT22;10281;54.406;18.556;2024-03-02T00:46:24;9.20;99.90
20246;DHT22;10281;54.406;18.556;2024-03-02T00:48:55;9.20;99.90
20246;DHT22;10281;54.406;18.556;2024-03-02T00:51:24;9.20;99.90
20246;DHT22;10281;54.406;18.556;2024-03-02T00:53:53;9.20;99.90
20246;DHT22;10281;54.406;18.556;2024-03-02T00:56:23;9.20;99.90
20246;DHT22;10281;54.406;18.556;2024-03-02T00:58:51;9.20;99.90
20246;DHT22;10281;54.406;18.556;2024-03-02T01:01:18;9.10;99.90
20246;DHT22;10281;54.406;18.556;2024-03-02T01:03:45;9.20;99.90
20246;DHT22;10281;54.406;18.556;2024-03-02T01:06:12;9.10;99.90
20246;DHT22;10281;54.406;18.556;2024-03-02T01:08:39;9.20;99.90
20246;DHT22;10281;54.406;18.556;2024-03-02T01:11:06;9.20;99.90
20246;DHT22;10281;54.406;18.556;2024-03-02T01:13:33;9.20;99.90
20246;DHT22;10281;54.406;18.556;2024-03-02T01:16:00;9.20;99.90
20246;DHT22;10281;54.406;18.556;2024-03-02T01:18:26;9.20;99.90
20246;DHT22;10281;54.406;18.556;2024-03-02T01:20:53;9.20;99.90
20246;DHT22;10281;54.406;18.556;2024-03-02T01:23:23;9.20;99.90
20246;DHT22;10281;54.406;18.556;2024-03-02T01:25:50;9.20;99.90
20246;DHT22;10281;54.406;18.556;2024-03-02T01:28:18;9.20;99.90
20246;DHT22;10281;54.406;18.556;2024-03-02T01:30:47;9.10;99.90
20246;DHT22;10281;54.406;18.556;2024-03-02T01:33:13;9.10;99.90
20246;DHT22;10281;54.406;18.556;2024-03-02T01:35:40;9.20;99.90
20246;DHT22;10281;54.406;18.556;2024-03-02T01:38:07;9.20;99.90
20246;DHT22;10281;54.406;18.556;2024-03-02T01:40:35;9.20;99.90
20246;DHT22;10281;54.406;18.556;2024-03-02T01:43:01;9.10;99.90
20246;DHT22;10281;54.406;18.556;2024-03-02T01:45:28;9.10;99.90
20246;DHT22;10281;54.406;18.556;2024-03-02T01:47:55;9.10;99.90
20246;DHT22;10281;54.406;18.556;2024-03-02T01:50:27;9.10;99.90
20246;DHT22;10281;54.406;18.556;2024-03-02T01:52:55;9.10;99.90
20246;DHT22;10281;54.406;18.556;2024-03-02T01:55:22;9.00;99.90
20246;DHT22;10281;54.406;18.556;2024-03-02T01:57:49;9.00;99.90
20246;DHT22;10281;54.406;18.556;2024-03-02T02:00:21;9.10;99.90
20246;DHT22;10281;54.406;18.556;2024-03-02T02:02:48;9.00;99.90
20246;DHT22;10281;54.406;18.556;2024-03-02T02:05:16;9.00;99.90
20246;DHT22;10281;54.406;18.556;2024-03-02T02:07:43;9.00;99.90
20246;DHT22;10281;54.406;18.556;2024-03-02T02:10:10;9.00;99.90
20246;DHT22;10281;54.406;18.556;2024-03-02T02:12:38;9.00;99.90
20246;DHT22;10281;54.406;18.556;2024-03-02T02:15:23;9.00;99.90
20246;DHT22;10281;54.406;18.556;2024-03-02T02:17:49;9.00;99.90
20246;DHT22;10281;54.406;18.556;2024-03-02T02:20:16;9.00;99.90
20246;DHT22;10281;54.406;18.556;2024-03-02T02:22:54;9.00;99.90
20246;DHT22;10281;54.406;18.556;2024-03-02T02:25:21;9.00;99.90
20246;DHT22;10281;54.406;18.556;2024-03-02T02:27:47;9.00;99.90
20246;DHT22;10281;54.406;18.556;2024-03-02T02:30:19;9.00;99.90
20246;DHT22;10281;54.406;18.556;2024-03-02T02:32:46;9.00;99.90
20246;DHT22;10281;54.406;18.556;2024-03-02T02:35:13;9.00;99.90
20246;DHT22;10281;54.406;18.556;2024-03-02T02:37:40;9.00;99.90
20246;DHT22;10281;54.406;18.556;2024-03-02T02:40:08;9.00;99.90
20246;DHT22;10281;54.406;18.556;2024-03-02T02:42:35;9.00;99.90
20246;DHT22;10281;54.406;18.556;2024-03-02T02:45:01;9.00;99.90
20246;DHT22;10281;54.406;18.556;2024-03-02T02:47:28;9.00;99.90
20246;DHT22;10281;54.406;18.556;2024-03-02T02:49:55;9.00;99.90
20246;DHT22;10281;54.406;18.556;2024-03-02T02:52:22;9.00;99.90
20246;DHT22;10281;54.406;18.556;2024-03-02T02:54:49;9.00;99.90
20246;DHT22;10281;54.406;18.556;2024-03-02T02:57:16;9.00;99.90
20246;DHT22;10281;54.406;18.556;2024-03-02T02:59:42;9.00;99.90
20246;DHT22;10281;54.406;18.556;2024-03-02T03:02:09;9.00;99.90
20246;DHT22;10281;54.406;18.556;2024-03-02T03:04:35;9.00;99.90
20246;DHT22;10281;54.406;18.556;2024-03-02T03:07:02;8.90;99.90
20246;DHT22;10281;54.406;18.556;2024-03-02T03:09:28;8.90;99.90
20246;DHT22;10281;54.406;18.556;2024-03-02T03:11:55;8.90;99.90
20246;DHT22;10281;54.406;18.556;2024-03-02T03:14:22;8.90;99.90
20246;DHT22;10281;54.406;18.556;2024-03-02T03:16:48;8.90;99.90
20246;DHT22;10281;54.406;18.556;2024-03-02T03:19:16;8.90;99.90
20246;DHT22;10281;54.406;18.556;2024-03-02T03:21:43;8.90;99.90
20246;DHT22;10281;54.406;18.556;2024-03-02T03:24:10;8.90;99.90
20246;DHT22;10281;54.406;18.556;2024-03-02T03:26:37;8.90;99.90
20246;DHT22;10281;54.406;18.556;2024-03-02T03:29:03;8.90;99.90
20246;DHT22;10281;54.406;18.556;2024-03-02T03:31:30;8.90;99.90
20246;DHT22;10281;54.406;18.556;2024-03-02T03:33:56;8.90;99.90
20246;DHT22;10281;54.406;18.556;2024-03-02T03:36:23;8.90;99.90
20246;DHT22;10281;54.406;18.556;2024-03-02T03:38:50;8.90;99.90
20246;DHT22;10281;54.406;18.556;2024-03-02T03:41:16;8.90;99.90
20246;DHT22;10281;54.406;18.556;2024-03-02T03:43:43;8.90;99.90
20246;DHT22;10281;54.406;18.556;2024-03-02T03:46:10;8.90;99.90
20246;DHT22;10281;54.406;18.556;2024-03-02T03:48:36;8.90;99.90
20246;DHT22;10281;54.406;18.556;2024-03-02T03:51:03;8.90;99.90
20246;DHT22;10281;54.406;18.556;2024-03-02T03:53:31;8.90;99.90
20246;DHT22;10281;54.406;18.556;2024-03-02T03:55:57;8.90;99.90
20246;DHT22;10281;54.406;18.556;2024-03-02T03:58:24;8.80;99.90
20246;DHT22;10281;54.406;18.556;2024-03-02T04:00:50;8.80;99.90
20246;DHT22;10281;54.406;18.556;2024-03-02T04:03:17;8.80;99.90
20246;DHT22;10281;54.406;18.556;2024-03-02T04:05:44;8.80;99.90
20246;DHT22;10281;54.406;18.556;2024-03-02T04:08:10;8.90;99.90
20246;DHT22;10281;54.406;18.556;2024-03-02T04:10:37;8.80;99.90
20246;DHT22;10281;54.406;18.556;2024-03-02T04:13:04;8.80;99.90
20246;DHT22;10281;54.406;18.556;2024-03-02T04:15:31;8.80;99.90
20246;DHT22;10281;54.406;18.556;2024-03-02T04:17:57;8.80;99.90
20246;DHT22;10281;54.406;18.556;2024-03-02T04:20:24;8.80;99.90
20246;DHT22;10281;54.406;18.556;2024-03-02T04:22:51;8.80;99.90
20246;DHT22;10281;54.406;18.556;2024-03-02T04:25:18;8.80;99.90
20246;DHT22;10281;54.406;18.556;2024-03-02T04:27:45;8.70;99.90
20246;DHT22;10281;54.406;18.556;2024-03-02T04:30:13;8.70;99.90
20246;DHT22;10281;54.406;18.556;2024-03-02T04:32:39;8.70;99.90
20246;DHT22;10281;54.406;18.556;2024-03-02T04:35:07;8.70;99.90
20246;DHT22;10281;54.406;18.556;2024-03-02T04:37:34;8.80;99.90
20246;DHT22;10281;54.406;18.556;2024-03-02T04:40:01;8.80;99.90
20246;DHT22;10281;54.406;18.556;2024-03-02T04:42:28;8.80;99.90
20246;DHT22;10281;54.406;18.556;2024-03-02T04:44:54;8.80;99.90
20246;DHT22;10281;54.406;18.556;2024-03-02T04:47:21;8.80;99.90
20246;DHT22;10281;54.406;18.556;2024-03-02T04:49:48;8.70;99.90
20246;DHT22;10281;54.406;18.556;2024-03-02T04:52:15;8.70;99.90
20246;DHT22;10281;54.406;18.556;2024-03-02T04:54:41;8.70;99.90
20246;DHT22;10281;54.406;18.556;2024-03-02T04:57:14;8.70;99.90
20246;DHT22;10281;54.406;18.556;2024-03-02T04:59:40;8.70;99.90
20246;DHT22;10281;54.406;18.556;2024-03-02T05:02:07;8.70;99.90
20246;DHT22;10281;54.406;18.556;2024-03-02T05:04:33;8.70;99.90
20246;DHT22;10281;54.406;18.556;2024-03-02T05:07:00;8.70;99.90
20246;DHT22;10281;54.406;18.556;2024-03-02T05:09:27;8.70;99.90
20246;DHT22;10281;54.406;18.556;2024-03-02T05:11:54;8.70;99.90
20246;DHT22;10281;54.406;18.556;2024-03-02T05:14:24;8.80;99.90
20246;DHT22;10281;54.406;18.556;2024-03-02T05:16:51;8.70;99.90
20246;DHT22;10281;54.406;18.556;2024-03-02T05:19:17;8.70;99.90
20246;DHT22;10281;54.406;18.556;2024-03-02T05:21:44;8.70;99.90
20246;DHT22;10281;54.406;18.556;2024-03-02T05:24:11;8.70;99.90
20246;DHT22;10281;54.406;18.556;2024-03-02T05:26:37;8.70;99.90
20246;DHT22;10281;54.406;18.556;2024-03-02T05:29:04;8.70;99.90
20246;DHT22;10281;54.406;18.556;2024-03-02T05:31:31;8.70;99.90
20246;DHT22;10281;54.406;18.556;2024-03-02T05:33:57;8.70;99.90
20246;DHT22;10281;54.406;18.556;2024-03-02T05:36:24;8.70;99.90
20246;DHT22;10281;54.406;18.556;2024-03-02T05:38:50;8.70;99.90
20246;DHT22;10281;54.406;18.556;2024-03-02T05:41:17;8.60;99.90
20246;DHT22;10281;54.406;18.556;2024-03-02T05:43:44;8.60;99.90
20246;DHT22;10281;54.406;18.556;2024-03-02T05:46:10;8.60;99.90
20246;DHT22;10281;54.406;18.556;2024-03-02T05:48:37;8.60;99.90
20246;DHT22;10281;54.406;18.556;2024-03-02T05:51:04;8.60;99.90
20246;DHT22;10281;54.406;18.556;2024-03-02T05:53:31;8.60;99.90
20246;DHT22;10281;54.406;18.556;2024-03-02T05:55:57;8.60;99.90
20246;DHT22;10281;54.406;18.556;2024-03-02T05:58:24;8.60;99.90
20246;DHT22;10281;54.406;18.556;2024-03-02T06:00:56;8.50;99.90
20246;DHT22;10281;54.406;18.556;2024-03-02T06:03:23;8.50;99.90
20246;DHT22;10281;54.406;18.556;2024-03-02T06:05:50;8.50;99.90
20246;DHT22;10281;54.406;18.556;2024-03-02T06:08:17;8.50;99.90
20246;DHT22;10281;54.406;18.556;2024-03-02T06:10:43;8.50;99.90
20246;DHT22;10281;54.406;18.556;2024-03-02T06:13:10;8.50;99.90
20246;DHT22;10281;54.406;18.556;2024-03-02T06:15:36;8.50;99.90
20246;DHT22;10281;54.406;18.556;2024-03-02T06:18:03;8.50;99.90
20246;DHT22;10281;54.406;18.556;2024-03-02T06:20:32;8.40;99.90
20246;DHT22;10281;54.406;18.556;2024-03-02T06:22:59;8.50;99.90
20246;DHT22;10281;54.406;18.556;2024-03-02T06:25:25;8.50;99.90
20246;DHT22;10281;54.406;18.556;2024-03-02T06:27:52;8.50;99.90
20246;DHT22;10281;54.406;18.556;2024-03-02T06:30:19;8.50;99.90
20246;DHT22;10281;54.406;18.556;2024-03-02T06:32:45;8.60;99.90
20246;DHT22;10281;54.406;18.556;2024-03-02T06:35:12;8.60;99.90
20246;DHT22;10281;54.406;18.556;2024-03-02T06:37:39;8.60;99.90
20246;DHT22;10281;54.406;18.556;2024-03-02T06:40:07;8.60;99.90
20246;DHT22;10281;54.406;18.556;2024-03-02T06:42:34;8.60;99.90
20246;DHT22;10281;54.406;18.556;2024-03-02T06:45:02;8.70;99.90
20246;DHT22;10281;54.406;18.556;2024-03-02T06:47:29;8.70;99.90
20246;DHT22;10281;54.406;18.556;2024-03-02T06:49:56;8.70;99.90
20246;DHT22;10281;54.406;18.556;2024-03-02T06:52:24;8.70;99.90
20246;DHT22;10281;54.406;18.556;2024-03-02T06:54:51;8.70;99.90
20246;DHT22;10281;54.406;18.556;2024-03-02T06:57:18;8.80;99.90
20246;DHT22;10281;54.406;18.556;2024-03-02T06:59:46;8.80;99.90
20246;DHT22;10281;54.406;18.556;2024-03-02T07:02:15;8.80;99.90
20246;DHT22;10281;54.406;18.556;2024-03-02T07:04:41;8.90;99.90
20246;DHT22;10281;54.406;18.556;2024-03-02T07:07:08;8.90;99.90
20246;DHT22;10281;54.406;18.556;2024-03-02T07:09:35;8.90;99.90
20246;DHT22;10281;54.406;18.556;2024-03-02T07:12:01;8.90;99.90
20246;DHT22;10281;54.406;18.556;2024-03-02T07:14:28;8.90;99.90
20246;DHT22;10281;54.406;18.556;2024-03-02T07:16:56;8.90;99.90
20246;DHT22;10281;54.406;18.556;2024-03-02T07:19:23;9.00;99.90
20246;DHT22;10281;54.406;18.556;2024-03-02T07:21:50;9.10;99.90
20246;DHT22;10281;54.406;18.556;2024-03-02T07:24:16;9.10;99.90
20246;DHT22;10281;54.406;18.556;2024-03-02T07:26:43;9.20;99.90
20246;DHT22;10281;54.406;18.556;2024-03-02T07:29:09;9.20;99.90
20246;DHT22;10281;54.406;18.556;2024-03-02T07:31:36;9.20;99.90
20246;DHT22;10281;54.406;18.556;2024-03-02T07:34:02;9.30;99.90
20246;DHT22;10281;54.406;18.556;2024-03-02T07:36:29;9.30;99.90
20246;DHT22;10281;54.406;18.556;2024-03-02T07:38:56;9.30;99.90
20246;DHT22;10281;54.406;18.556;2024-03-02T07:41:22;9.30;99.90
20246;DHT22;10281;54.406;18.556;2024-03-02T07:43:49;9.30;99.90
20246;DHT22;10281;54.406;18.556;2024-03-02T07:46:15;9.30;99.90
20246;DHT22;10281;54.406;18.556;2024-03-02T07:48:43;9.30;99.90
20246;DHT22;10281;54.406;18.556;2024-03-02T07:51:10;9.30;99.90
20246;DHT22;10281;54.406;18.556;2024-03-02T07:53:36;9.30;99.90
20246;DHT22;10281;54.406;18.556;2024-03-02T07:56:04;9.30;99.90
20246;DHT22;10281;54.406;18.556;2024-03-02T07:58:30;9.30;99.90
20246;DHT22;10281;54.406;18.556;2024-03-02T08:00:57;9.20;99.90
20246;DHT22;10281;54.406;18.556;2024-03-02T08:03:24;9.20;99.90
20246;DHT22;10281;54.406;18.556;2024-03-02T08:05:51;9.10;99.90
20246;DHT22;10281;54.406;18.556;2024-03-02T08:08:17;9.10;99.90
20246;DHT22;10281;54.406;18.556;2024-03-02T08:10:44;9.20;99.90
20246;DHT22;10281;54.406;18.556;2024-03-02T08:13:11;9.20;99.90
20246;DHT22;10281;54.406;18.556;2024-03-02T08:15:37;9.20;99.90
20246;DHT22;10281;54.406;18.556;2024-03-02T08:18:04;9.20;99.90
20246;DHT22;10281;54.406;18.556;2024-03-02T08:20:31;9.20;99.90
20246;DHT22;10281;54.406;18.556;2024-03-02T08:22:58;9.20;99.90
20246;DHT22;10281;54.406;18.556;2024-03-02T08:25:24;9.20;99.90
20246;DHT22;10281;54.406;18.556;2024-03-02T08:27:51;9.20;99.90
20246;DHT22;10281;54.406;18.556;2024-03-02T08:30:17;9.20;99.90
20246;DHT22;10281;54.406;18.556;2024-03-02T08:32:44;9.20;99.90
20246;DHT22;10281;54.406;18.556;2024-03-02T08:35:13;9.30;99.90
20246;DHT22;10281;54.406;18.556;2024-03-02T08:37:41;9.30;99.90
20246;DHT22;10281;54.406;18.556;2024-03-02T08:40:10;9.20;99.90
20246;DHT22;10281;54.406;18.556;2024-03-02T08:42:36;9.30;99.90
20246;DHT22;10281;54.406;18.556;2024-03-02T08:45:03;9.30;99.90
20246;DHT22;10281;54.406;18.556;2024-03-02T08:47:30;9.40;99.90
20246;DHT22;10281;54.406;18.556;2024-03-02T08:49:56;9.40;99.90
20246;DHT22;10281;54.406;18.556;2024-03-02T08:52:23;9.50;99.90
20246;DHT22;10281;54.406;18.556;2024-03-02T08:54:50;9.50;99.90
20246;DHT22;10281;54.406;18.556;2024-03-02T08:57:16;9.50;99.90
20246;DHT22;10281;54.406;18.556;2024-03-02T08:59:43;9.60;99.90
20246;DHT22;10281;54.406;18.556;2024-03-02T09:02:10;9.50;99.90
20246;DHT22;10281;54.406;18.556;2024-03-02T09:04:37;9.50;99.90
20246;DHT22;10281;54.406;18.556;2024-03-02T09:07:04;9.50;99.90
20246;DHT22;10281;54.406;18.556;2024-03-02T09:09:30;9.50;99.90
20246;DHT22;10281;54.406;18.556;2024-03-02T09:11:57;9.50;99.90
20246;DHT22;10281;54.406;18.556;2024-03-02T09:14:24;9.50;99.90
20246;DHT22;10281;54.406;18.556;2024-03-02T09:16:51;9.60;99.90
20246;DHT22;10281;54.406;18.556;2024-03-02T09:19:17;9.60;99.90
20246;DHT22;10281;54.406;18.556;2024-03-02T09:21:44;9.50;99.90
20246;DHT22;10281;54.406;18.556;2024-03-02T09:24:11;9.60;99.90
20246;DHT22;10281;54.406;18.556;2024-03-02T09:26:38;9.60;99.90
20246;DHT22;10281;54.406;18.556;2024-03-02T09:29:05;9.60;99.90
20246;DHT22;10281;54.406;18.556;2024-03-02T09:31:31;9.60;99.90
20246;DHT22;10281;54.406;18.556;2024-03-02T09:33:58;9.60;99.90
20246;DHT22;10281;54.406;18.556;2024-03-02T09:36:24;9.60;99.90
20246;DHT22;10281;54.406;18.556;2024-03-02T09:38:51;9.60;99.90
20246;DHT22;10281;54.406;18.556;2024-03-02T09:41:18;9.70;99.90
20246;DHT22;10281;54.406;18.556;2024-03-02T09:43:44;9.70;99.90
20246;DHT22;10281;54.406;18.556;2024-03-02T09:46:11;9.70;99.90
20246;DHT22;10281;54.406;18.556;2024-03-02T09:48:38;9.70;99.90
20246;DHT22;10281;54.406;18.556;2024-03-02T09:51:05;9.70;99.90
20246;DHT22;10281;54.406;18.556;2024-03-02T09:53:32;9.70;99.90
20246;DHT22;10281;54.406;18.556;2024-03-02T09:56:00;9.70;99.90
20246;DHT22;10281;54.406;18.556;2024-03-02T09:58:27;9.70;99.90
20246;DHT22;10281;54.406;18.556;2024-03-02T10:00:53;9.70;99.90
20246;DHT22;10281;54.406;18.556;2024-03-02T10:03:20;9.80;99.90
20246;DHT22;10281;54.406;18.556;2024-03-02T10:05:49;9.80;99.90
20246;DHT22;10281;54.406;18.556;2024-03-02T10:08:15;9.80;99.90
20246;DHT22;10281;54.406;18.556;2024-03-02T10:10:42;9.90;99.90
20246;DHT22;10281;54.406;18.556;2024-03-02T10:13:10;9.90;99.90
20246;DHT22;10281;54.406;18.556;2024-03-02T10:15:39;9.90;99.90
20246;DHT22;10281;54.406;18.556;2024-03-02T10:18:10;10.00;99.90
20246;DHT22;10281;54.406;18.556;2024-03-02T10:20:38;9.90;99.90
20246;DHT22;10281;54.406;18.556;2024-03-02T10:23:13;10.00;99.90
20246;DHT22;10281;54.406;18.556;2024-03-02T10:25:40;10.10;99.90
20246;DHT22;10281;54.406;18.556;2024-03-02T10:28:07;10.10;99.90
20246;DHT22;10281;54.406;18.556;2024-03-02T10:30:34;10.20;99.90
20246;DHT22;10281;54.406;18.556;2024-03-02T10:33:02;10.20;99.90
20246;DHT22;10281;54.406;18.556;2024-03-02T10:35:29;10.30;99.90
20246;DHT22;10281;54.406;18.556;2024-03-02T10:37:59;10.40;99.90
20246;DHT22;10281;54.406;18.556;2024-03-02T10:40:27;10.50;99.90
20246;DHT22;10281;54.406;18.556;2024-03-02T10:42:53;10.60;99.90
20246;DHT22;10281;54.406;18.556;2024-03-02T10:45:20;10.60;99.90
20246;DHT22;10281;54.406;18.556;2024-03-02T10:47:49;10.60;99.90
20246;DHT22;10281;54.406;18.556;2024-03-02T10:50:16;10.60;99.90
20246;DHT22;10281;54.406;18.556;2024-03-02T10:52:43;10.60;99.90
20246;DHT22;10281;54.406;18.556;2024-03-02T10:55:10;10.70;99.90
20246;DHT22;10281;54.406;18.556;2024-03-02T10:57:51;10.70;99.90
20246;DHT22;10281;54.406;18.556;2024-03-02T11:00:19;10.80;99.90
20246;DHT22;10281;54.406;18.556;2024-03-02T11:02:51;10.80;99.90
20246;DHT22;10281;54.406;18.556;2024-03-02T11:05:31;10.90;99.90
20246;DHT22;10281;54.406;18.556;2024-03-02T11:08:02;10.90;99.90
20246;DHT22;10281;54.406;18.556;2024-03-02T11:10:35;10.90;99.90
20246;DHT22;10281;54.406;18.556;2024-03-02T11:13:05;10.90;99.90
20246;DHT22;10281;54.406;18.556;2024-03-02T11:15:34;11.00;99.90
20246;DHT22;10281;54.406;18.556;2024-03-02T11:18:04;11.00;99.90
20246;DHT22;10281;54.406;18.556;2024-03-02T11:20:33;11.00;99.90
20246;DHT22;10281;54.406;18.556;2024-03-02T11:23:06;11.10;99.90
20246;DHT22;10281;54.406;18.556;2024-03-02T11:25:33;11.10;99.90
20246;DHT22;10281;54.406;18.556;2024-03-02T11:28:02;11.10;99.90
20246;DHT22;10281;54.406;18.556;2024-03-02T11:30:48;11.20;99.90
20246;DHT22;10281;54.406;18.556;2024-03-02T11:33:22;11.30;99.90
20246;DHT22;10281;54.406;18.556;2024-03-02T11:35:47;11.30;99.90
20246;DHT22;10281;54.406;18.556;2024-03-02T11:38:14;11.30;99.90
20246;DHT22;10281;54.406;18.556;2024-03-02T11:40:41;11.40;99.90
20246;DHT22;10281;54.406;18.556;2024-03-02T11:43:09;11.50;99.90
20246;DHT22;10281;54.406;18.556;2024-03-02T11:45:36;11.40;99.90
20246;DHT22;10281;54.406;18.556;2024-03-02T11:48:09;11.50;99.90
20246;DHT22;10281;54.406;18.556;2024-03-02T11:50:49;11.50;99.90
20246;DHT22;10281;54.406;18.556;2024-03-02T11:53:17;11.40;99.90
20246;DHT22;10281;54.406;18.556;2024-03-02T11:55:45;11.50;99.90
20246;DHT22;10281;54.406;18.556;2024-03-02T11:58:13;11.50;99.90
20246;DHT22;10281;54.406;18.556;2024-03-02T12:00:40;11.60;99.90
20246;DHT22;10281;54.406;18.556;2024-03-02T12:03:08;11.60;99.90
20246;DHT22;10281;54.406;18.556;2024-03-02T12:05:35;11.70;99.90
20246;DHT22;10281;54.406;18.556;2024-03-02T12:08:04;11.70;99.90
20246;DHT22;10281;54.406;18.556;2024-03-02T12:10:33;11.80;99.90
20246;DHT22;10281;54.406;18.556;2024-03-02T12:13:01;11.80;99.90
20246;DHT22;10281;54.406;18.556;2024-03-02T12:15:30;11.80;99.90
20246;DHT22;10281;54.406;18.556;2024-03-02T12:17:59;11.70;99.90
20246;DHT22;10281;54.406;18.556;2024-03-02T12:20:28;11.80;99.90
20246;DHT22;10281;54.406;18.556;2024-03-02T12:22:57;11.80;99.90
20246;DHT22;10281;54.406;18.556;2024-03-02T12:25:25;11.80;99.90
20246;DHT22;10281;54.406;18.556;2024-03-02T12:27:55;11.80;99.90
20246;DHT22;10281;54.406;18.556;2024-03-02T12:30:22;11.90;99.90
20246;DHT22;10281;54.406;18.556;2024-03-02T12:32:50;11.90;99.90
20246;DHT22;10281;54.406;18.556;2024-03-02T12:35:18;11.80;99.90
20246;DHT22;10281;54.406;18.556;2024-03-02T12:37:46;11.80;99.90
20246;DHT22;10281;54.406;18.556;2024-03-02T12:40:14;11.90;99.90
20246;DHT22;10281;54.406;18.556;2024-03-02T12:42:43;11.90;99.90
20246;DHT22;10281;54.406;18.556;2024-03-02T12:45:10;11.90;99.90
20246;DHT22;10281;54.406;18.556;2024-03-02T12:47:39;11.90;99.90
20246;DHT22;10281;54.406;18.556;2024-03-02T12:50:07;11.90;99.90
20246;DHT22;10281;54.406;18.556;2024-03-02T12:52:34;11.80;99.90
20246;DHT22;10281;54.406;18.556;2024-03-02T12:55:04;11.90;99.90
20246;DHT22;10281;54.406;18.556;2024-03-02T12:57:32;11.80;99.90
20246;DHT22;10281;54.406;18.556;2024-03-02T13:00:00;11.80;99.90
20246;DHT22;10281;54.406;18.556;2024-03-02T13:02:30;11.80;99.90
20246;DHT22;10281;54.406;18.556;2024-03-02T13:04:58;11.80;99.90
20246;DHT22;10281;54.406;18.556;2024-03-02T13:07:25;11.80;99.90
20246;DHT22;10281;54.406;18.556;2024-03-02T13:09:53;11.90;99.90
20246;DHT22;10281;54.406;18.556;2024-03-02T13:12:23;11.90;99.90
20246;DHT22;10281;54.406;18.556;2024-03-02T13:14:52;12.00;99.90
20246;DHT22;10281;54.406;18.556;2024-03-02T13:17:20;12.00;99.90
20246;DHT22;10281;54.406;18.556;2024-03-02T13:19:53;12.00;99.90
20246;DHT22;10281;54.406;18.556;2024-03-02T13:22:20;12.00;99.90
20246;DHT22;10281;54.406;18.556;2024-03-02T13:24:49;12.00;99.90
20246;DHT22;10281;54.406;18.556;2024-03-02T13:27:16;12.00;99.90
20246;DHT22;10281;54.406;18.556;2024-03-02T13:29:47;12.10;99.90
20246;DHT22;10281;54.406;18.556;2024-03-02T13:32:15;12.10;99.90
20246;DHT22;10281;54.406;18.556;2024-03-02T13:34:42;12.10;99.90
20246;DHT22;10281;54.406;18.556;2024-03-02T13:37:09;12.10;99.90
20246;DHT22;10281;54.406;18.556;2024-03-02T13:39:36;12.10;99.90
20246;DHT22;10281;54.406;18.556;2024-03-02T13:42:08;12.10;99.90
20246;DHT22;10281;54.406;18.556;2024-03-02T13:44:36;12.10;99.90
20246;DHT22;10281;54.406;18.556;2024-03-02T13:47:03;12.10;99.90
20246;DHT22;10281;54.406;18.556;2024-03-02T13:49:31;12.10;99.90
20246;DHT22;10281;54.406;18.556;2024-03-02T13:52:03;12.10;99.90
20246;DHT22;10281;54.406;18.556;2024-03-02T13:54:32;12.10;99.90
20246;DHT22;10281;54.406;18.556;2024-03-02T13:56:58;12.10;99.90
20246;DHT22;10281;54.406;18.556;2024-03-02T13:59:25;12.20;99.90
20246;DHT22;10281;54.406;18.556;2024-03-02T14:01:52;12.20;99.90
20246;DHT22;10281;54.406;18.556;2024-03-02T14:04:19;12.20;99.90
20246;DHT22;10281;54.406;18.556;2024-03-02T14:06:46;12.20;99.90
20246;DHT22;10281;54.406;18.556;2024-03-02T14:09:12;12.10;99.90
20246;DHT22;10281;54.406;18.556;2024-03-02T14:11:39;12.10;99.90
20246;DHT22;10281;54.406;18.556;2024-03-02T14:14:05;12.10;99.90
20246;DHT22;10281;54.406;18.556;2024-03-02T14:16:32;12.10;99.90
20246;DHT22;10281;54.406;18.556;2024-03-02T14:18:59;12.10;99.90
20246;DHT22;10281;54.406;18.556;2024-03-02T14:21:25;12.10;99.90
20246;DHT22;10281;54.406;18.556;2024-03-02T14:23:52;12.10;99.90
20246;DHT22;10281;54.406;18.556;2024-03-02T14:26:18;12.10;99.90
20246;DHT22;10281;54.406;18.556;2024-03-02T14:28:45;12.10;99.90
20246;DHT22;10281;54.406;18.556;2024-03-02T14:31:12;12.10;99.90
20246;DHT22;10281;54.406;18.556;2024-03-02T14:33:39;12.10;99.90
20246;DHT22;10281;54.406;18.556;2024-03-02T14:36:06;12.10;99.90
20246;DHT22;10281;54.406;18.556;2024-03-02T14:38:32;12.10;99.90
20246;DHT22;10281;54.406;18.556;2024-03-02T14:40:59;12.00;99.90
20246;DHT22;10281;54.406;18.556;2024-03-02T14:43:26;12.00;99.90
20246;DHT22;10281;54.406;18.556;2024-03-02T14:45:52;12.00;99.90
20246;DHT22;10281;54.406;18.556;2024-03-02T14:48:19;11.90;99.90
20246;DHT22;10281;54.406;18.556;2024-03-02T14:50:46;11.90;99.90
20246;DHT22;10281;54.406;18.556;2024-03-02T14:53:13;11.90;99.90
20246;DHT22;10281;54.406;18.556;2024-03-02T14:55:39;11.80;99.90
20246;DHT22;10281;54.406;18.556;2024-03-02T14:58:06;11.80;99.90
20246;DHT22;10281;54.406;18.556;2024-03-02T15:00:34;11.80;99.90
20246;DHT22;10281;54.406;18.556;2024-03-02T15:03:00;11.80;99.90
20246;DHT22;10281;54.406;18.556;2024-03-02T15:05:27;11.70;99.90
20246;DHT22;10281;54.406;18.556;2024-03-02T15:07:54;11.60;99.90
20246;DHT22;10281;54.406;18.556;2024-03-02T15:10:21;11.60;99.90
20246;DHT22;10281;54.406;18.556;2024-03-02T15:12:47;11.50;99.90
20246;DHT22;10281;54.406;18.556;2024-03-02T15:15:14;11.40;99.90
20246;DHT22;10281;54.406;18.556;2024-03-02T15:17:40;11.40;99.90
20246;DHT22;10281;54.406;18.556;2024-03-02T15:20:08;11.40;99.90
20246;DHT22;10281;54.406;18.556;2024-03-02T15:22:35;11.50;99.90
20246;DHT22;10281;54.406;18.556;2024-03-02T15:25:02;11.40;99.90
20246;DHT22;10281;54.406;18.556;2024-03-02T15:27:28;11.40;99.90